sensor_id;sensor_type;location;lat;lon;timestamp;temperature;humidity
35085;SHT85;21267;51.032;6.998;2022-08-21T00:01:38;17.08;84.14
35085;SHT85;21267;51.032;6.998;2022-08-21T00:04:07;17.23;83.82
35085;SHT85;21267;51.032;6.998;2022-08-21T00:06:34;17.13;83.93
35085;SHT85;21267;51.032;6.998;2022-08-21T00:09:02;16.92;84.72
35085;SHT85;21267;51.032;6.998;2022-08-21T00:11:33;17.08;83.90
35085;SHT85;21267;51.032;6.998;2022-08-21T00:14:02;17.10;83.83
35085;SHT85;21267;51.032;6.998;2022-08-21T00:16:30;17.06;84.26
35085;SHT85;21267;51.032;6.998;2022-08-21T00:18:57;17.02;83.86
35085;SHT85;21267;51.032;6.998;2022-08-21T00:21:24;17.13;83.84
35085;SHT85;21267;51.032;6.998;2022-08-21T00:23:51;16.86;84.24
35085;SHT85;21267;51.032;6.998;2022-08-21T00:26:18;16.58;85.22
35085;SHT85;21267;51.032;6.998;2022-08-21T00:28:45;16.79;84.86
35085;SHT85;21267;51.032;6.998;2022-08-21T00:31:12;16.66;84.68
35085;SHT85;21267;51.032;6.998;2022-08-21T00:33:39;16.62;84.66
35085;SHT85;21267;51.032;6.998;2022-08-21T00:36:05;16.49;85.12
35085;SHT85;21267;51.032;6.998;2022-08-21T00:38:32;16.42;85.36
35085;SHT85;21267;51.032;6.998;2022-08-21T00:41:01;16.34;85.61
35085;SHT85;21267;51.032;6.998;2022-08-21T00:43:49;16.38;85.61
35085;SHT85;21267;51.032;6.998;2022-08-21T00:46:16;16.20;85.86
35085;SHT85;21267;51.032;6.998;2022-08-21T00:48:42;16.22;85.91
35085;SHT85;21267;51.032;6.998;2022-08-21T00:51:17;16.29;85.78
35085;SHT85;21267;51.032;6.998;2022-08-21T00:53:53;16.17;85.94
35085;SHT85;21267;51.032;6.998;2022-08-21T00:56:20;16.01;86.21
35085;SHT85;21267;51.032;6.998;2022-08-21T00:58:47;15.94;86.44
35085;SHT85;21267;51.032;6.998;2022-08-21T01:01:20;16.17;86.01
35085;SHT85;21267;51.032;6.998;2022-08-21T01:03:47;15.84;86.87
35085;SHT85;21267;51.032;6.998;2022-08-21T01:06:15;15.89;86.65
35085;SHT85;21267;51.032;6.998;2022-08-21T01:08:43;15.87;86.41
35085;SHT85;21267;51.032;6.998;2022-08-21T01:11:14;15.81;87.02
35085;SHT85;21267;51.032;6.998;2022-08-21T01:13:41;15.91;86.55
35085;SHT85;21267;51.032;6.998;2022-08-21T01:16:14;15.77;86.68
35085;SHT85;21267;51.032;6.998;2022-08-21T01:18:42;15.60;87.31
35085;SHT85;21267;51.032;6.998;2022-08-21T01:21:10;15.63;87.17
35085;SHT85;21267;51.032;6.998;2022-08-21T01:23:42;15.71;86.81
35085;SHT85;21267;51.032;6.998;2022-08-21T01:26:09;15.57;87.42
35085;SHT85;21267;51.032;6.998;2022-08-21T01:28:38;15.74;86.62
35085;SHT85;21267;51.032;6.998;2022-08-21T01:31:08;15.70;86.47
35085;SHT85;21267;51.032;6.998;2022-08-21T01:33:36;16.00;85.92
35085;SHT85;21267;51.032;6.998;2022-08-21T01:36:03;15.69;86.25
35085;SHT85;21267;51.032;6.998;2022-08-21T01:38:30;15.83;86.24
35085;SHT85;21267;51.032;6.998;2022-08-21T01:40:57;15.59;87.33
35085;SHT85;21267;51.032;6.998;2022-08-21T01:43:24;15.36;87.63
35085;SHT85;21267;51.032;6.998;2022-08-21T01:46:04;15.40;87.67
35085;SHT85;21267;51.032;6.998;2022-08-21T01:48:31;15.29;87.91
35085;SHT85;21267;51.032;6.998;2022-08-21T01:50:58;15.33;87.82
35085;SHT85;21267;51.032;6.998;2022-08-21T01:53:25;15.39;87.39
35085;SHT85;21267;51.032;6.998;2022-08-21T01:55:58;15.38;87.28
35085;SHT85;21267;51.032;6.998;2022-08-21T01:58:25;15.45;87.22
35085;SHT85;21267;51.032;6.998;2022-08-21T02:00:51;15.49;86.64
35085;SHT85;21267;51.032;6.998;2022-08-21T02:03:19;15.53;86.62
35085;SHT85;21267;51.032;6.998;2022-08-21T02:06:02;15.53;86.40
35085;SHT85;21267;51.032;6.998;2022-08-21T02:08:29;15.43;86.57
35085;SHT85;21267;51.032;6.998;2022-08-21T02:10:55;15.25;87.28
35085;SHT85;21267;51.032;6.998;2022-08-21T02:13:22;15.19;87.57
35085;SHT85;21267;51.032;6.998;2022-08-21T02:15:48;15.28;87.22
35085;SHT85;21267;51.032;6.998;2022-08-21T02:18:15;15.36;86.88
35085;SHT85;21267;51.032;6.998;2022-08-21T02:20:45;15.35;86.56
35085;SHT85;21267;51.032;6.998;2022-08-21T02:23:13;15.39;86.32
35085;SHT85;21267;51.032;6.998;2022-08-21T02:25:40;15.26;86.51
35085;SHT85;21267;51.032;6.998;2022-08-21T02:28:10;15.16;86.66
35085;SHT85;21267;51.032;6.998;2022-08-21T02:30:41;15.18;86.83
35085;SHT85;21267;51.032;6.998;2022-08-21T02:33:09;15.18;86.91
35085;SHT85;21267;51.032;6.998;2022-08-21T02:35:37;15.19;86.84
35085;SHT85;21267;51.032;6.998;2022-08-21T02:38:06;15.16;86.46
35085;SHT85;21267;51.032;6.998;2022-08-21T02:40:40;15.15;86.43
35085;SHT85;21267;51.032;6.998;2022-08-21T02:43:14;15.28;86.13
35085;SHT85;21267;51.032;6.998;2022-08-21T02:45:43;15.24;86.21
35085;SHT85;21267;51.032;6.998;2022-08-21T02:48:14;15.33;86.01
35085;SHT85;21267;51.032;6.998;2022-08-21T02:50:43;14.96;87.23
35085;SHT85;21267;51.032;6.998;2022-08-21T02:53:11;15.16;86.40
35085;SHT85;21267;51.032;6.998;2022-08-21T02:55:40;15.18;86.41
35085;SHT85;21267;51.032;6.998;2022-08-21T02:58:07;15.15;86.61
35085;SHT85;21267;51.032;6.998;2022-08-21T03:00:35;15.11;86.63
35085;SHT85;21267;51.032;6.998;2022-08-21T03:03:03;15.15;86.53
35085;SHT85;21267;51.032;6.998;2022-08-21T03:05:32;15.19;86.37
35085;SHT85;21267;51.032;6.998;2022-08-21T03:08:00;15.16;86.53
35085;SHT85;21267;51.032;6.998;2022-08-21T03:10:28;15.12;86.61
35085;SHT85;21267;51.032;6.998;2022-08-21T03:12:55;15.16;86.61
35085;SHT85;21267;51.032;6.998;2022-08-21T03:15:23;15.38;86.07
35085;SHT85;21267;51.032;6.998;2022-08-21T03:17:51;15.36;86.24
35085;SHT85;21267;51.032;6.998;2022-08-21T03:20:20;15.39;85.96
35085;SHT85;21267;51.032;6.998;2022-08-21T03:22:49;15.21;86.74
35085;SHT85;21267;51.032;6.998;2022-08-21T03:25:23;15.12;86.92
35085;SHT85;21267;51.032;6.998;2022-08-21T03:28:10;15.08;86.88
35085;SHT85;21267;51.032;6.998;2022-08-21T03:30:42;15.14;86.79
35085;SHT85;21267;51.032;6.998;2022-08-21T03:33:09;15.04;87.13
35085;SHT85;21267;51.032;6.998;2022-08-21T03:35:45;15.16;87.21
35085;SHT85;21267;51.032;6.998;2022-08-21T03:38:13;15.14;87.54
35085;SHT85;21267;51.032;6.998;2022-08-21T03:40:42;14.87;87.78
35085;SHT85;21267;51.032;6.998;2022-08-21T03:43:08;14.87;87.97
35085;SHT85;21267;51.032;6.998;2022-08-21T03:45:37;14.70;88.32
35085;SHT85;21267;51.032;6.998;2022-08-21T03:48:05;14.78;88.17
35085;SHT85;21267;51.032;6.998;2022-08-21T03:50:36;14.77;88.33
35085;SHT85;21267;51.032;6.998;2022-08-21T03:53:10;14.70;88.33
35085;SHT85;21267;51.032;6.998;2022-08-21T03:55:44;14.83;88.15
35085;SHT85;21267;51.032;6.998;2022-08-21T03:58:12;14.71;88.44
35085;SHT85;21267;51.032;6.998;2022-08-21T04:00:43;14.66;88.64
35085;SHT85;21267;51.032;6.998;2022-08-21T04:03:09;14.63;88.76
35085;SHT85;21267;51.032;6.998;2022-08-21T04:05:36;14.63;88.64
35085;SHT85;21267;51.032;6.998;2022-08-21T04:08:05;14.68;88.82
35085;SHT85;21267;51.032;6.998;2022-08-21T04:10:34;14.67;88.44
35085;SHT85;21267;51.032;6.998;2022-08-21T04:13:02;14.60;88.53
35085;SHT85;21267;51.032;6.998;2022-08-21T04:15:29;14.68;88.58
35085;SHT85;21267;51.032;6.998;2022-08-21T04:17:56;14.59;88.63
35085;SHT85;21267;51.032;6.998;2022-08-21T04:20:23;14.59;88.54
35085;SHT85;21267;51.032;6.998;2022-08-21T04:22:49;14.61;88.46
35085;SHT85;21267;51.032;6.998;2022-08-21T04:25:19;14.57;88.60
35085;SHT85;21267;51.032;6.998;2022-08-21T04:27:46;14.61;88.27
35085;SHT85;21267;51.032;6.998;2022-08-21T04:30:13;14.52;88.81
35085;SHT85;21267;51.032;6.998;2022-08-21T04:32:45;14.83;87.80
35085;SHT85;21267;51.032;6.998;2022-08-21T04:35:13;14.63;88.38
35085;SHT85;21267;51.032;6.998;2022-08-21T04:37:40;14.66;87.99
35085;SHT85;21267;51.032;6.998;2022-08-21T04:40:09;14.59;88.27
35085;SHT85;21267;51.032;6.998;2022-08-21T04:42:46;14.56;88.50
35085;SHT85;21267;51.032;6.998;2022-08-21T04:45:30;14.68;87.93
35085;SHT85;21267;51.032;6.998;2022-08-21T04:47:59;14.64;87.83
35085;SHT85;21267;51.032;6.998;2022-08-21T04:53:27;14.61;88.24
35085;SHT85;21267;51.032;6.998;2022-08-21T04:55:58;14.74;87.82
35085;SHT85;21267;51.032;6.998;2022-08-21T04:58:27;14.70;87.91
35085;SHT85;21267;51.032;6.998;2022-08-21T05:00:56;14.63;88.33
35085;SHT85;21267;51.032;6.998;2022-08-21T05:03:24;14.56;88.64
35085;SHT85;21267;51.032;6.998;2022-08-21T05:05:51;14.54;88.70
35085;SHT85;21267;51.032;6.998;2022-08-21T05:08:21;14.54;88.67
35085;SHT85;21267;51.032;6.998;2022-08-21T05:10:50;14.43;88.81
35085;SHT85;21267;51.032;6.998;2022-08-21T05:13:17;14.56;88.59
35085;SHT85;21267;51.032;6.998;2022-08-21T05:15:43;14.56;88.44
35085;SHT85;21267;51.032;6.998;2022-08-21T05:18:10;14.59;88.49
35085;SHT85;21267;51.032;6.998;2022-08-21T05:20:37;14.63;88.11
35085;SHT85;21267;51.032;6.998;2022-08-21T05:23:09;14.63;88.00
35085;SHT85;21267;51.032;6.998;2022-08-21T05:25:36;14.89;87.65
35085;SHT85;21267;51.032;6.998;2022-08-21T05:28:03;14.88;87.21
35085;SHT85;21267;51.032;6.998;2022-08-21T05:30:32;14.84;87.33
35085;SHT85;21267;51.032;6.998;2022-08-21T05:33:00;15.11;87.40
35085;SHT85;21267;51.032;6.998;2022-08-21T05:35:28;14.91;87.09
35085;SHT85;21267;51.032;6.998;2022-08-21T05:37:54;14.95;87.39
35085;SHT85;21267;51.032;6.998;2022-08-21T05:40:22;15.01;87.16
35085;SHT85;21267;51.032;6.998;2022-08-21T05:42:52;15.11;87.17
35085;SHT85;21267;51.032;6.998;2022-08-21T05:45:22;15.14;86.86
35085;SHT85;21267;51.032;6.998;2022-08-21T05:48:21;15.26;86.46
35085;SHT85;21267;51.032;6.998;2022-08-21T05:50:49;15.42;86.13
35085;SHT85;21267;51.032;6.998;2022-08-21T05:53:17;15.26;85.95
35085;SHT85;21267;51.032;6.998;2022-08-21T05:55:45;15.22;86.12
35085;SHT85;21267;51.032;6.998;2022-08-21T05:58:14;15.35;85.90
35085;SHT85;21267;51.032;6.998;2022-08-21T06:00:42;15.32;85.93
35085;SHT85;21267;51.032;6.998;2022-08-21T06:03:14;15.38;85.72
35085;SHT85;21267;51.032;6.998;2022-08-21T06:05:41;15.57;85.37
35085;SHT85;21267;51.032;6.998;2022-08-21T06:08:08;15.56;85.31
35085;SHT85;21267;51.032;6.998;2022-08-21T06:10:34;15.59;85.22
35085;SHT85;21267;51.032;6.998;2022-08-21T06:13:01;15.50;84.98
35085;SHT85;21267;51.032;6.998;2022-08-21T06:15:28;15.45;85.37
35085;SHT85;21267;51.032;6.998;2022-08-21T06:17:54;15.52;85.25
35085;SHT85;21267;51.032;6.998;2022-08-21T06:20:21;15.71;84.84
35085;SHT85;21267;51.032;6.998;2022-08-21T06:22:48;15.66;84.90
35085;SHT85;21267;51.032;6.998;2022-08-21T06:25:15;15.84;84.38
35085;SHT85;21267;51.032;6.998;2022-08-21T06:27:41;16.11;83.72
35085;SHT85;21267;51.032;6.998;2022-08-21T06:33:38;16.43;82.78
35085;SHT85;21267;51.032;6.998;2022-08-21T06:36:05;16.32;82.56
35085;SHT85;21267;51.032;6.998;2022-08-21T06:38:32;16.38;82.55
35085;SHT85;21267;51.032;6.998;2022-08-21T06:40:58;16.61;82.31
35085;SHT85;21267;51.032;6.998;2022-08-21T06:43:29;16.90;81.57
35085;SHT85;21267;51.032;6.998;2022-08-21T06:46:06;16.82;81.62
35085;SHT85;21267;51.032;6.998;2022-08-21T06:48:33;16.77;81.17
35085;SHT85;21267;51.032;6.998;2022-08-21T06:51:00;16.75;81.09
35085;SHT85;21267;51.032;6.998;2022-08-21T06:53:27;16.86;81.02
35085;SHT85;21267;51.032;6.998;2022-08-21T06:55:54;16.90;80.70
35085;SHT85;21267;51.032;6.998;2022-08-21T06:58:20;17.27;80.27
35085;SHT85;21267;51.032;6.998;2022-08-21T07:00:48;17.18;79.84
35085;SHT85;21267;51.032;6.998;2022-08-21T07:03:24;17.32;79.69
35085;SHT85;21267;51.032;6.998;2022-08-21T07:05:51;17.61;78.80
35085;SHT85;21267;51.032;6.998;2022-08-21T07:08:18;17.55;78.61
35085;SHT85;21267;51.032;6.998;2022-08-21T07:10:46;17.52;78.42
35085;SHT85;21267;51.032;6.998;2022-08-21T07:13:13;17.55;78.58
35085;SHT85;21267;51.032;6.998;2022-08-21T07:15:40;17.79;78.21
35085;SHT85;21267;51.032;6.998;2022-08-21T07:18:07;17.85;77.74
35085;SHT85;21267;51.032;6.998;2022-08-21T07:20:34;17.98;77.38
35085;SHT85;21267;51.032;6.998;2022-08-21T07:23:06;18.17;76.98
35085;SHT85;21267;51.032;6.998;2022-08-21T07:25:33;18.40;76.49
35085;SHT85;21267;51.032;6.998;2022-08-21T07:28:00;18.75;75.03
35085;SHT85;21267;51.032;6.998;2022-08-21T07:30:27;18.96;73.41
35085;SHT85;21267;51.032;6.998;2022-08-21T07:32:54;18.99;73.49
35085;SHT85;21267;51.032;6.998;2022-08-21T07:35:21;19.24;72.84
35085;SHT85;21267;51.032;6.998;2022-08-21T07:37:48;19.19;72.21
35085;SHT85;21267;51.032;6.998;2022-08-21T07:40:16;19.35;72.12
35085;SHT85;21267;51.032;6.998;2022-08-21T07:42:45;19.49;71.56
35085;SHT85;21267;51.032;6.998;2022-08-21T07:45:13;20.09;69.61
35085;SHT85;21267;51.032;6.998;2022-08-21T07:47:40;20.59;67.75
35085;SHT85;21267;51.032;6.998;2022-08-21T07:50:10;21.34;65.63
35085;SHT85;21267;51.032;6.998;2022-08-21T07:52:38;21.44;65.22
35085;SHT85;21267;51.032;6.998;2022-08-21T07:55:06;21.71;65.09
35085;SHT85;21267;51.032;6.998;2022-08-21T07:57:32;22.09;63.73
35085;SHT85;21267;51.032;6.998;2022-08-21T07:59:59;22.24;63.33
35085;SHT85;21267;51.032;6.998;2022-08-21T08:02:28;22.57;62.28
35085;SHT85;21267;51.032;6.998;2022-08-21T08:05:03;22.98;61.15
35085;SHT85;21267;51.032;6.998;2022-08-21T08:07:30;22.55;61.79
35085;SHT85;21267;51.032;6.998;2022-08-21T08:09:57;22.81;61.21
35085;SHT85;21267;51.032;6.998;2022-08-21T08:12:24;22.26;61.05
35085;SHT85;21267;51.032;6.998;2022-08-21T08:14:57;22.70;61.26
35085;SHT85;21267;51.032;6.998;2022-08-21T08:17:24;23.39;59.07
35085;SHT85;21267;51.032;6.998;2022-08-21T08:19:51;23.56;57.38
35085;SHT85;21267;51.032;6.998;2022-08-21T08:22:20;22.88;58.07
35085;SHT85;21267;51.032;6.998;2022-08-21T08:24:48;23.15;56.97
35085;SHT85;21267;51.032;6.998;2022-08-21T08:27:15;23.42;57.45
35085;SHT85;21267;51.032;6.998;2022-08-21T08:29:43;24.10;56.11
35085;SHT85;21267;51.032;6.998;2022-08-21T08:32:10;24.01;56.31
35085;SHT85;21267;51.032;6.998;2022-08-21T08:34:37;23.74;56.83
35085;SHT85;21267;51.032;6.998;2022-08-21T08:37:06;24.52;55.05
35085;SHT85;21267;51.032;6.998;2022-08-21T08:39:33;23.80;56.00
35085;SHT85;21267;51.032;6.998;2022-08-21T08:45:11;23.81;55.78
35085;SHT85;21267;51.032;6.998;2022-08-21T08:47:40;23.56;56.60
35085;SHT85;21267;51.032;6.998;2022-08-21T08:50:30;24.20;55.05
35085;SHT85;21267;51.032;6.998;2022-08-21T08:53:05;24.42;53.62
35085;SHT85;21267;51.032;6.998;2022-08-21T08:55:33;24.68;53.41
35085;SHT85;21267;51.032;6.998;2022-08-21T08:58:01;24.28;54.97
35085;SHT85;21267;51.032;6.998;2022-08-21T09:00:30;24.45;54.24
35085;SHT85;21267;51.032;6.998;2022-08-21T09:02:59;25.55;51.57
35085;SHT85;21267;51.032;6.998;2022-08-21T09:05:40;25.06;51.92
35085;SHT85;21267;51.032;6.998;2022-08-21T09:08:25;25.60;51.58
35085;SHT85;21267;51.032;6.998;2022-08-21T09:11:07;25.27;52.11
35085;SHT85;21267;51.032;6.998;2022-08-21T09:14:13;25.09;52.34
35085;SHT85;21267;51.032;6.998;2022-08-21T09:16:47;25.34;51.64
35085;SHT85;21267;51.032;6.998;2022-08-21T09:25:14;24.62;52.50
35085;SHT85;21267;51.032;6.998;2022-08-21T09:27:41;25.30;51.73
35085;SHT85;21267;51.032;6.998;2022-08-21T09:30:09;25.78;50.18
35085;SHT85;21267;51.032;6.998;2022-08-21T09:32:37;25.70;50.42
35085;SHT85;21267;51.032;6.998;2022-08-21T09:35:16;26.04;49.89
35085;SHT85;21267;51.032;6.998;2022-08-21T09:38:03;26.04;50.19
35085;SHT85;21267;51.032;6.998;2022-08-21T09:40:44;26.39;49.05
35085;SHT85;21267;51.032;6.998;2022-08-21T09:45:39;26.87;47.96
35085;SHT85;21267;51.032;6.998;2022-08-21T09:48:10;25.77;50.05
35085;SHT85;21267;51.032;6.998;2022-08-21T09:50:37;25.80;50.05
35085;SHT85;21267;51.032;6.998;2022-08-21T09:53:05;26.32;48.77
35085;SHT85;21267;51.032;6.998;2022-08-21T09:55:50;26.28;49.07
35085;SHT85;21267;51.032;6.998;2022-08-21T09:58:38;25.45;50.84
35085;SHT85;21267;51.032;6.998;2022-08-21T10:01:06;25.15;51.51
35085;SHT85;21267;51.032;6.998;2022-08-21T10:03:32;25.26;51.42
35085;SHT85;21267;51.032;6.998;2022-08-21T10:06:03;25.45;51.31
35085;SHT85;21267;51.032;6.998;2022-08-21T10:08:37;25.50;50.87
35085;SHT85;21267;51.032;6.998;2022-08-21T10:11:08;25.84;50.23
35085;SHT85;21267;51.032;6.998;2022-08-21T10:24:38;24.99;51.20
35085;SHT85;21267;51.032;6.998;2022-08-21T10:30:03;25.60;50.09
35085;SHT85;21267;51.032;6.998;2022-08-21T10:32:43;25.64;49.87
35085;SHT85;21267;51.032;6.998;2022-08-21T10:40:35;26.23;48.26
35085;SHT85;21267;51.032;6.998;2022-08-21T10:43:20;26.26;47.86
35085;SHT85;21267;51.032;6.998;2022-08-21T10:48:49;26.70;47.44
35085;SHT85;21267;51.032;6.998;2022-08-21T10:54:56;26.77;46.38
35085;SHT85;21267;51.032;6.998;2022-08-21T10:57:38;26.62;46.55
35085;SHT85;21267;51.032;6.998;2022-08-21T11:00:13;26.69;45.58
35085;SHT85;21267;51.032;6.998;2022-08-21T11:02:46;27.43;45.20
35085;SHT85;21267;51.032;6.998;2022-08-21T11:05:31;27.04;45.13
35085;SHT85;21267;51.032;6.998;2022-08-21T11:08:04;27.11;44.20
35085;SHT85;21267;51.032;6.998;2022-08-21T11:10:39;27.35;43.86
35085;SHT85;21267;51.032;6.998;2022-08-21T11:16:37;27.45;45.09
35085;SHT85;21267;51.032;6.998;2022-08-21T11:22:36;27.04;44.97
35085;SHT85;21267;51.032;6.998;2022-08-21T11:25:25;27.38;44.27
35085;SHT85;21267;51.032;6.998;2022-08-21T11:28:21;27.89;43.44
35085;SHT85;21267;51.032;6.998;2022-08-21T11:34:03;28.72;42.15
35085;SHT85;21267;51.032;6.998;2022-08-21T11:44:48;28.03;42.43
35085;SHT85;21267;51.032;6.998;2022-08-21T11:47:30;28.71;41.47
35085;SHT85;21267;51.032;6.998;2022-08-21T11:50:04;28.85;41.49
35085;SHT85;21267;51.032;6.998;2022-08-21T11:53:03;29.46;40.58
35085;SHT85;21267;51.032;6.998;2022-08-21T11:55:42;29.57;39.81
35085;SHT85;21267;51.032;6.998;2022-08-21T11:58:32;29.08;40.43
35085;SHT85;21267;51.032;6.998;2022-08-21T12:01:11;29.06;39.80
35085;SHT85;21267;51.032;6.998;2022-08-21T12:03:43;29.29;39.75
35085;SHT85;21267;51.032;6.998;2022-08-21T12:06:13;29.42;39.09
35085;SHT85;21267;51.032;6.998;2022-08-21T12:08:59;29.11;39.48
35085;SHT85;21267;51.032;6.998;2022-08-21T12:11:26;28.49;42.21
35085;SHT85;21267;51.032;6.998;2022-08-21T12:16:37;28.91;42.43
35085;SHT85;21267;51.032;6.998;2022-08-21T12:19:11;28.58;42.62
35085;SHT85;21267;51.032;6.998;2022-08-21T12:22:09;29.32;42.16
35085;SHT85;21267;51.032;6.998;2022-08-21T12:24:49;29.54;41.30
35085;SHT85;21267;51.032;6.998;2022-08-21T12:27:27;28.37;43.41
35085;SHT85;21267;51.032;6.998;2022-08-21T12:30:00;28.37;43.86
35085;SHT85;21267;51.032;6.998;2022-08-21T12:32:43;29.14;42.84
35085;SHT85;21267;51.032;6.998;2022-08-21T12:35:37;28.41;43.25
35085;SHT85;21267;51.032;6.998;2022-08-21T12:38:17;29.05;42.50
35085;SHT85;21267;51.032;6.998;2022-08-21T12:41:04;29.26;42.58
35085;SHT85;21267;51.032;6.998;2022-08-21T12:43:38;29.97;41.35
35085;SHT85;21267;51.032;6.998;2022-08-21T12:46:16;29.83;40.67
35085;SHT85;21267;51.032;6.998;2022-08-21T12:48:48;29.87;40.83
35085;SHT85;21267;51.032;6.998;2022-08-21T12:51:45;29.73;40.80
35085;SHT85;21267;51.032;6.998;2022-08-21T12:54:26;30.08;40.85
35085;SHT85;21267;51.032;6.998;2022-08-21T12:57:02;29.35;41.55
35085;SHT85;21267;51.032;6.998;2022-08-21T12:59:30;29.35;41.48
35085;SHT85;21267;51.032;6.998;2022-08-21T13:02:12;29.78;40.34
35085;SHT85;21267;51.032;6.998;2022-08-21T13:04:41;27.73;43.78
35085;SHT85;21267;51.032;6.998;2022-08-21T13:07:10;28.16;43.25
35085;SHT85;21267;51.032;6.998;2022-08-21T13:09:51;29.66;40.45
35085;SHT85;21267;51.032;6.998;2022-08-21T13:12:21;30.01;40.42
35085;SHT85;21267;51.032;6.998;2022-08-21T13:14:56;30.52;39.41
35085;SHT85;21267;51.032;6.998;2022-08-21T13:17:30;29.72;40.44
35085;SHT85;21267;51.032;6.998;2022-08-21T13:20:01;29.56;40.28
35085;SHT85;21267;51.032;6.998;2022-08-21T13:22:28;29.90;40.06
35085;SHT85;21267;51.032;6.998;2022-08-21T13:25:00;29.29;40.52
35085;SHT85;21267;51.032;6.998;2022-08-21T13:27:33;30.33;38.84
35085;SHT85;21267;51.032;6.998;2022-08-21T13:30:22;30.15;39.09
35085;SHT85;21267;51.032;6.998;2022-08-21T13:32:52;30.22;39.43
35085;SHT85;21267;51.032;6.998;2022-08-21T13:35:31;30.33;39.05
35085;SHT85;21267;51.032;6.998;2022-08-21T13:38:00;30.10;39.47
35085;SHT85;21267;51.032;6.998;2022-08-21T13:40:31;30.62;38.90
35085;SHT85;21267;51.032;6.998;2022-08-21T13:42:59;30.36;39.14
35085;SHT85;21267;51.032;6.998;2022-08-21T13:45:31;30.52;38.71
35085;SHT85;21267;51.032;6.998;2022-08-21T13:48:00;30.08;39.65
35085;SHT85;21267;51.032;6.998;2022-08-21T13:50:33;29.90;39.81
35085;SHT85;21267;51.032;6.998;2022-08-21T13:53:05;30.56;39.64
35085;SHT85;21267;51.032;6.998;2022-08-21T13:55:38;30.01;39.61
35085;SHT85;21267;51.032;6.998;2022-08-21T13:58:06;30.51;38.99
35085;SHT85;21267;51.032;6.998;2022-08-21T14:00:43;30.65;38.71
35085;SHT85;21267;51.032;6.998;2022-08-21T14:03:25;30.11;39.81
35085;SHT85;21267;51.032;6.998;2022-08-21T14:05:52;30.56;38.90
35085;SHT85;21267;51.032;6.998;2022-08-21T14:08:49;31.61;36.99
35085;SHT85;21267;51.032;6.998;2022-08-21T14:11:17;30.43;38.41
35085;SHT85;21267;51.032;6.998;2022-08-21T14:13:47;30.12;39.02
35085;SHT85;21267;51.032;6.998;2022-08-21T14:16:18;30.87;37.61
35085;SHT85;21267;51.032;6.998;2022-08-21T14:21:32;30.55;38.09
35085;SHT85;21267;51.032;6.998;2022-08-21T14:26:31;31.77;36.79
35085;SHT85;21267;51.032;6.998;2022-08-21T14:28:59;31.79;36.67
35085;SHT85;21267;51.032;6.998;2022-08-21T14:31:35;32.12;36.11
35085;SHT85;21267;51.032;6.998;2022-08-21T14:34:11;31.67;36.44
35085;SHT85;21267;51.032;6.998;2022-08-21T14:36:46;31.24;36.18
35085;SHT85;21267;51.032;6.998;2022-08-21T14:39:13;31.00;36.42
35085;SHT85;21267;51.032;6.998;2022-08-21T14:41:39;31.13;36.49
35085;SHT85;21267;51.032;6.998;2022-08-21T14:44:09;32.01;35.12
35085;SHT85;21267;51.032;6.998;2022-08-21T14:46:36;31.72;35.38
35085;SHT85;21267;51.032;6.998;2022-08-21T14:49:23;30.82;36.77
35085;SHT85;21267;51.032;6.998;2022-08-21T14:51:49;31.33;36.00
35085;SHT85;21267;51.032;6.998;2022-08-21T14:54:27;30.76;36.94
35085;SHT85;21267;51.032;6.998;2022-08-21T14:56:58;31.24;36.30
35085;SHT85;21267;51.032;6.998;2022-08-21T14:59:25;31.04;37.06
35085;SHT85;21267;51.032;6.998;2022-08-21T15:01:52;30.94;36.27
35085;SHT85;21267;51.032;6.998;2022-08-21T15:04:18;30.04;37.62
35085;SHT85;21267;51.032;6.998;2022-08-21T15:06:45;29.80;37.95
35085;SHT85;21267;51.032;6.998;2022-08-21T15:09:11;30.08;37.83
35085;SHT85;21267;51.032;6.998;2022-08-21T15:11:38;29.93;37.66
35085;SHT85;21267;51.032;6.998;2022-08-21T15:14:12;29.11;38.99
35085;SHT85;21267;51.032;6.998;2022-08-21T15:16:41;29.08;39.37
35085;SHT85;21267;51.032;6.998;2022-08-21T15:19:08;29.47;38.87
35085;SHT85;21267;51.032;6.998;2022-08-21T15:21:34;28.63;39.74
35085;SHT85;21267;51.032;6.998;2022-08-21T15:24:01;28.65;39.87
35085;SHT85;21267;51.032;6.998;2022-08-21T15:26:28;28.68;39.99
35085;SHT85;21267;51.032;6.998;2022-08-21T15:28:54;28.75;40.01
35085;SHT85;21267;51.032;6.998;2022-08-21T15:31:21;28.54;39.97
35085;SHT85;21267;51.032;6.998;2022-08-21T15:33:48;28.45;40.70
35085;SHT85;21267;51.032;6.998;2022-08-21T15:36:14;28.24;40.48
35085;SHT85;21267;51.032;6.998;2022-08-21T15:38:41;27.68;41.63
35085;SHT85;21267;51.032;6.998;2022-08-21T15:41:07;27.53;42.09
35085;SHT85;21267;51.032;6.998;2022-08-21T15:43:41;27.70;41.74
35085;SHT85;21267;51.032;6.998;2022-08-21T15:46:12;27.63;41.87
35085;SHT85;21267;51.032;6.998;2022-08-21T15:48:39;27.51;42.00
35085;SHT85;21267;51.032;6.998;2022-08-21T15:51:05;27.15;42.61
35085;SHT85;21267;51.032;6.998;2022-08-21T15:53:32;27.31;42.48
35085;SHT85;21267;51.032;6.998;2022-08-21T15:56:03;27.35;42.39
35085;SHT85;21267;51.032;6.998;2022-08-21T15:58:29;27.24;42.28
35085;SHT85;21267;51.032;6.998;2022-08-21T16:00:59;27.24;42.38
35085;SHT85;21267;51.032;6.998;2022-08-21T16:03:27;27.15;42.20
35085;SHT85;21267;51.032;6.998;2022-08-21T16:05:54;27.38;42.14
35085;SHT85;21267;51.032;6.998;2022-08-21T16:08:23;27.86;41.44
35085;SHT85;21267;51.032;6.998;2022-08-21T16:10:52;27.96;41.44
35085;SHT85;21267;51.032;6.998;2022-08-21T16:13:27;28.31;41.37
35085;SHT85;21267;51.032;6.998;2022-08-21T16:15:55;28.06;42.06
35085;SHT85;21267;51.032;6.998;2022-08-21T16:18:22;28.27;41.97
35085;SHT85;21267;51.032;6.998;2022-08-21T16:20:49;27.94;42.49
35085;SHT85;21267;51.032;6.998;2022-08-21T16:23:16;27.30;43.59
35085;SHT85;21267;51.032;6.998;2022-08-21T16:25:43;27.08;44.08
35085;SHT85;21267;51.032;6.998;2022-08-21T16:28:13;27.37;43.82
35085;SHT85;21267;51.032;6.998;2022-08-21T16:30:40;27.94;42.79
35085;SHT85;21267;51.032;6.998;2022-08-21T16:35:53;27.89;42.89
35085;SHT85;21267;51.032;6.998;2022-08-21T16:38:20;28.14;43.09
35085;SHT85;21267;51.032;6.998;2022-08-21T16:40:47;28.16;42.74
35085;SHT85;21267;51.032;6.998;2022-08-21T16:43:14;28.44;42.73
35085;SHT85;21267;51.032;6.998;2022-08-21T16:45:41;28.10;43.10
35085;SHT85;21267;51.032;6.998;2022-08-21T16:48:09;27.53;43.92
35085;SHT85;21267;51.032;6.998;2022-08-21T16:50:36;26.91;45.01
35085;SHT85;21267;51.032;6.998;2022-08-21T16:53:03;27.20;44.55
35085;SHT85;21267;51.032;6.998;2022-08-21T16:55:30;27.18;44.54
35085;SHT85;21267;51.032;6.998;2022-08-21T16:57:56;27.17;44.28
35085;SHT85;21267;51.032;6.998;2022-08-21T17:00:23;27.59;43.99
35085;SHT85;21267;51.032;6.998;2022-08-21T17:02:52;27.88;43.47
35085;SHT85;21267;51.032;6.998;2022-08-21T17:05:19;27.62;43.59